To NAV CANADA Home Page Login to a new session Search on AWWS site Feedback and Comments Disclaimer Vers la page française équivalente Tips FAQ What's new on the site To the Forecasts and Observations / NOTAM section To "File a Flight Plan" website Publications and other links Update of the User's profile FIC Telephone Numbers My Weather Data Folder Route Weather Data Regional Weather Data Local Weather Data To the Forecasts and Observations / NOTAM section
Request Generated 08/22/2017 at 01:34:06 UTC . Weather information available at that time is displayed.

METAR/TAF

MONTREAL/PIERRE-ELLIOTT-TRUDEAU INTL/QC    

METAR CYUL 220100Z 22006KT 15SM BKN250 25/19 A2997 RMK CS7 SLP150
DENSITY ALT 1300FT=
METAR CYUL 220000Z 21007KT 15SM BKN240 26/19 A2996 RMK CI5 SLP146
DENSITY ALT 1400FT=
METAR CYUL 212300Z 23009KT 15SM BKN250 27/19 A2997 RMK CI5 SLP149
DENSITY ALT 1500FT=

TAF CYUL 212338Z 2200/2224 23010KT P6SM SCT250
BECMG 2209/2211 16008KT
FM221700 18015KT P6SM BKN040
FM221900 27015G25KT 4SM SHRA BKN050 OVC120 TEMPO 2219/2222
VRB25G40KT 1SM +TSRA BKN015 OVC025CB PROB30 2219/2221 VRB35G55KT
1/2SM +TSGRRA BKN008 OVC020CB
FM222200 23015KT P6SM -SHRA FEW006 OVC015
RMK NXT FCST BY 220300Z=
Your time UTC time
Weather data provided by Environment Canada and NAV CANADA